Mc Cool Junction, Nebraska
Current Conditions -  °F | °C
As of 3:55 PM on Friday 28 Nov 2014 (Local Time) from KJYR Reporting Station
Clear Clear  
Wind Chill: 63°   Ceiling: Unl
Heat Index: 63°   Visibility: 10mi
Dew Point: 63°   Wind: 6mph
Humidity: 100%   Direction: 230°SW
Pressure: 29.66"   Gusts: NA
Location:  40.7421°N, 97.5973°W
Report Text: KJYR 282155Z AUTO 23005KT 10SM CLR 17/17 A2966 RMK AO2
Loading
Personal Weather Stations






























Interactive Weather Map New forecast layout! Learn more

10-Day Weather Forecast

Advertisements
Track Severe Weather on mobile